Time;durP1;ratioP1;P1;durP2;ratioP2;P2;SDS_P1;SDS_P2;PMS_P1;PMS_P2;Temp;Humidity;BMP_temperature;BMP_pressure;BME280_temperature;BME280_humidity;BME280_pressure;Samples;Min_cycle;Max_cycle;Signal;HPM_P1;HPM_P2
2021/01/06 00:01:22;;;;;;;33.57;19.07;;;2.70;60.10;;;;;;6160888;23;19997;-81
2021/01/06 00:03:49;;;;;;;36.77;19.83;;;2.70;60.00;;;;;;6161425;23;20020;-81
2021/01/06 00:06:16;;;;;;;41.23;20.27;;;2.70;60.00;;;;;;6160993;23;20009;-81
2021/01/06 00:08:43;;;;;;;37.57;20.03;;;2.60;60.00;;;;;;6185061;23;20048;-81
2021/01/06 00:11:11;;;;;;;39.13;21.20;;;2.70;60.00;;;;;;6160260;23;20008;-82
2021/01/06 00:13:37;;;;;;;40.40;20.60;;;2.70;60.00;;;;;;6161252;23;20419;-81
2021/01/06 00:16:03;;;;;;;37.93;19.43;;;2.60;60.10;;;;;;6188110;23;20001;-81
2021/01/06 00:18:29;;;;;;;42.47;22.27;;;2.60;60.20;;;;;;6162757;23;20002;-81
2021/01/06 00:20:55;;;;;;;37.83;21.40;;;2.60;60.40;;;;;;6190825;23;20015;-81
2021/01/06 00:23:21;;;;;;;38.63;20.83;;;2.60;60.40;;;;;;6189923;23;20005;-81
2021/01/06 00:25:48;;;;;;;41.80;21.60;;;2.60;60.50;;;;;;6164158;23;20023;-81
2021/01/06 00:28:16;;;;;;;41.03;21.97;;;2.50;60.90;;;;;;6164321;23;20001;-81
2021/01/06 00:30:55;;;;;;;39.90;22.23;;;2.50;61.10;;;;;;6163542;23;20396;-81
2021/01/06 00:33:24;;;;;;;38.53;21.83;;;2.50;61.50;;;;;;6162931;23;20001;-82
2021/01/06 00:35:52;;;;;;;42.27;23.40;;;2.60;61.50;;;;;;6161260;23;20009;-83
2021/01/06 00:38:18;;;;;;;44.83;23.47;;;2.60;61.60;;;;;;6188902;23;20005;-83
2021/01/06 00:40:45;;;;;;;43.23;22.40;;;2.60;61.60;;;;;;6161740;23;20101;-83
2021/01/06 00:43:12;;;;;;;41.73;22.60;;;2.60;61.90;;;;;;6212899;23;20024;-82
2021/01/06 00:45:38;;;;;;;44.83;23.17;;;2.60;62.20;;;;;;6192408;23;20012;-82
2021/01/06 00:48:05;;;;;;;43.43;23.13;;;2.80;62.40;;;;;;6192958;23;20012;-82
2021/01/06 00:50:31;;;;;;;39.87;20.67;;;2.90;61.90;;;;;;6192742;23;20004;-82
2021/01/06 00:53:05;;;;;;;45.40;23.20;;;3.00;62.20;;;;;;6193369;23;20088;-83
2021/01/06 00:55:31;;;;;;;40.63;22.47;;;3.10;62.00;;;;;;6190279;23;20005;-83
2021/01/06 00:57:57;;;;;;;46.87;24.33;;;3.00;61.70;;;;;;6192412;23;20043;-83
2021/01/06 01:00:25;;;;;;;41.03;22.90;;;2.90;61.80;;;;;;6214792;23;20020;-83
2021/01/06 01:02:51;;;;;;;43.97;24.60;;;2.80;61.90;;;;;;6192622;23;20054;-83
2021/01/06 01:05:26;;;;;;;45.30;24.23;;;2.70;62.10;;;;;;6194143;23;20024;-83
2021/01/06 01:07:52;;;;;;;44.40;23.93;;;2.60;62.30;;;;;;6193123;23;20108;-83
2021/01/06 01:10:40;;;;;;;42.40;23.00;;;2.50;62.40;;;;;;6191936;23;20028;-83
2021/01/06 01:13:13;;;;;;;47.13;24.77;;;2.50;62.70;;;;;;6192389;23;20008;-82
2021/01/06 01:15:40;;;;;;;45.17;23.13;;;2.50;62.90;;;;;;6192948;23;20007;-82
2021/01/06 01:18:11;;;;;;;46.43;23.43;;;2.40;62.80;;;;;;6192321;23;20084;-82
2021/01/06 01:20:48;;;;;;;44.70;22.60;;;2.40;63.00;;;;;;6219774;23;20627;-82
2021/01/06 01:23:19;;;;;;;47.40;23.73;;;2.40;63.20;;;;;;6193045;23;20000;-82
2021/01/06 01:25:45;;;;;;;43.10;23.67;;;2.50;63.10;;;;;;6191561;23;20450;-82
2021/01/06 01:28:12;;;;;;;47.03;25.30;;;2.50;63.00;;;;;;6192027;23;20055;-81
2021/01/06 01:30:38;;;;;;;44.43;25.07;;;2.50;63.00;;;;;;6192644;23;20398;-82
2021/01/06 01:33:04;;;;;;;50.03;25.60;;;2.50;63.10;;;;;;6193038;23;20016;-82
2021/01/06 01:35:31;;;;;;;50.40;24.13;;;2.50;63.20;;;;;;6192401;23;20124;-82
2021/01/06 01:37:58;;;;;;;46.30;25.17;;;2.50;63.20;;;;;;6218240;23;20004;-82
2021/01/06 01:40:28;;;;;;;47.43;24.40;;;2.50;63.20;;;;;;6217933;23;20049;-81
2021/01/06 01:42:59;;;;;;;49.40;24.30;;;2.50;63.50;;;;;;6170206;23;20037;-81
2021/01/06 01:45:30;;;;;;;45.80;23.93;;;2.50;63.50;;;;;;6161477;23;20055;-81
2021/01/06 01:48:03;;;;;;;50.33;25.17;;;2.50;63.60;;;;;;6161837;23;20001;-81
2021/01/06 01:50:30;;;;;;;45.92;24.35;;;2.40;63.40;;;;;;6189043;23;20032;-82
2021/01/06 01:53:07;;;;;;;46.33;22.57;;;2.40;63.70;;;;;;6162770;23;20024;-82
2021/01/06 01:55:35;;;;;;;46.50;24.43;;;2.40;63.80;;;;;;6162180;23;20005;-82
2021/01/06 01:58:09;;;;;;;46.57;26.37;;;2.40;64.00;;;;;;6162298;23;20332;-82
2021/01/06 02:00:38;;;;;;;46.57;25.27;;;2.30;64.10;;;;;;6161739;23;20084;-82
2021/01/06 02:03:27;;;;;;;50.73;26.17;;;2.30;64.20;;;;;;6188735;23;20001;-82
2021/01/06 02:05:56;;;;;;;48.97;25.13;;;2.20;64.60;;;;;;6189218;23;20085;-81
2021/01/06 02:08:33;;;;;;;52.17;25.87;;;2.20;64.50;;;;;;6189212;23;20012;-81
2021/01/06 02:11:07;;;;;;;50.13;26.90;;;2.20;64.70;;;;;;6161721;23;20328;-81
2021/01/06 02:13:38;;;;;;;47.33;24.47;;;2.20;64.70;;;;;;6161498;23;20012;-81
2021/01/06 02:16:24;;;;;;;51.67;25.10;;;2.30;64.90;;;;;;6162271;23;20037;-81
2021/01/06 02:18:50;;;;;;;51.07;26.00;;;2.30;64.80;;;;;;6161134;23;20001;-81
2021/01/06 02:21:18;;;;;;;50.60;27.10;;;2.30;64.70;;;;;;6162113;23;20001;-82
2021/01/06 02:23:47;;;;;;;54.53;26.23;;;2.20;65.00;;;;;;6162093;23;20004;-81
2021/01/06 02:26:13;;;;;;;51.73;26.40;;;2.20;65.00;;;;;;6162353;23;20032;-81
2021/01/06 02:28:39;;;;;;;56.07;27.90;;;2.20;65.00;;;;;;6161462;23;20005;-81
2021/01/06 02:31:05;;;;;;;50.73;25.03;;;2.20;65.20;;;;;;6188297;23;20032;-81
2021/01/06 02:33:32;;;;;;;52.53;28.43;;;2.30;65.30;;;;;;6188726;23;20491;-81
2021/01/06 02:35:58;;;;;;;53.23;27.83;;;2.30;65.20;;;;;;6161980;23;20001;-82
2021/01/06 02:38:24;;;;;;;51.00;26.00;;;2.30;65.20;;;;;;6161472;23;20071;-82
2021/01/06 02:40:53;;;;;;;42.83;24.03;;;2.30;65.30;;;;;;6160096;23;20009;-82
2021/01/06 02:43:19;;;;;;;45.20;24.60;;;2.30;65.20;;;;;;6156688;23;20013;-82
2021/01/06 02:45:45;;;;;;;52.00;27.53;;;2.30;65.10;;;;;;6182935;23;20005;-82
2021/01/06 02:48:10;;;;;;;47.27;25.77;;;2.20;65.20;;;;;;6185901;23;20060;-82
2021/01/06 02:50:42;;;;;;;53.60;26.77;;;2.30;65.50;;;;;;6161114;23;20344;-82
2021/01/06 02:53:11;;;;;;;51.10;26.67;;;2.30;65.30;;;;;;6161102;23;20008;-82
2021/01/06 02:55:38;;;;;;;49.40;27.13;;;2.30;65.50;;;;;;6161340;23;20013;-82
2021/01/06 02:58:08;;;;;;;49.00;25.90;;;2.40;65.30;;;;;;6187526;23;20251;-82
2021/01/06 03:00:34;;;;;;;49.07;26.27;;;2.40;65.30;;;;;;6162365;23;20109;-82
2021/01/06 03:03:02;;;;;;;43.50;23.83;;;2.40;65.20;;;;;;6189011;23;20005;-82
2021/01/06 03:05:44;;;;;;;50.10;25.93;;;2.40;65.30;;;;;;6162024;23;20012;-82
2021/01/06 03:08:17;;;;;;;51.78;26.45;;;2.40;65.20;;;;;;6161482;23;20017;-82
2021/01/06 03:10:44;;;;;;;48.97;25.90;;;2.40;65.20;;;;;;6188029;23;20008;-82
2021/01/06 03:13:10;;;;;;;48.53;26.37;;;2.40;65.00;;;;;;6163425;23;20012;-82
2021/01/06 03:15:37;;;;;;;49.80;26.93;;;2.40;65.20;;;;;;6187165;23;19997;-82
2021/01/06 03:18:03;;;;;;;46.23;26.03;;;2.40;65.20;;;;;;6163505;23;20001;-82
2021/01/06 03:20:35;;;;;;;48.93;26.97;;;2.30;65.40;;;;;;6162804;23;20001;-82
2021/01/06 03:23:29;;;;;;;50.83;25.88;;;2.20;65.60;;;;;;6162315;23;20417;-82
2021/01/06 03:25:58;;;;;;;51.00;27.37;;;2.20;65.70;;;;;;6161506;23;20028;-82
2021/01/06 03:28:27;;;;;;;51.67;27.00;;;2.20;65.50;;;;;;6162052;23;20032;-82
2021/01/06 03:30:55;;;;;;;51.27;27.87;;;2.20;65.60;;;;;;6161223;23;20438;-82
2021/01/06 03:33:23;;;;;;;50.27;27.30;;;2.20;65.50;;;;;;6162454;23;20016;-82
2021/01/06 03:35:56;;;;;;;49.43;25.70;;;2.20;65.80;;;;;;6161817;23;20008;-81
2021/01/06 03:38:39;;;;;;;52.67;26.37;;;2.20;65.60;;;;;;6162598;23;20008;-81
2021/01/06 03:41:06;;;;;;;;;;;2.20;65.70;;;;;;6162014;23;20016;-81
2021/01/06 03:43:36;;;;;;;48.50;24.97;;;2.20;65.60;;;;;;6216562;23;19990;-81
2021/01/06 03:46:10;;;;;;;50.70;27.50;;;2.20;65.40;;;;;;6191738;23;20001;-82
2021/01/06 03:48:55;;;;;;;52.10;26.53;;;2.20;65.40;;;;;;6191640;23;20000;-82
2021/01/06 03:51:24;;;;;;;46.93;26.07;;;2.10;65.60;;;;;;6218178;23;20026;-82
2021/01/06 03:53:53;;;;;;;49.07;25.37;;;2.10;65.60;;;;;;6191851;23;20000;-81
2021/01/06 03:56:23;;;;;;;52.33;25.90;;;2.10;65.70;;;;;;6217978;23;20031;-81
2021/01/06 03:59:13;;;;;;;49.20;25.80;;;2.10;66.10;;;;;;6190897;23;20543;-81
2021/01/06 04:01:52;;;;;;;48.40;25.03;;;2.10;65.80;;;;;;6191140;23;20007;-81
2021/01/06 04:04:27;;;;;;;46.23;24.43;;;2.00;65.80;;;;;;6219208;23;19996;-81
2021/01/06 04:06:55;;;;;;;40.03;22.63;;;2.00;65.80;;;;;;6192259;23;20008;-81
2021/01/06 04:09:30;;;;;;;42.20;23.10;;;2.00;65.90;;;;;;6218396;23;20001;-82
2021/01/06 04:12:22;;;;;;;39.77;22.50;;;2.00;65.90;;;;;;6193068;23;20009;-82
2021/01/06 04:14:48;;;;;;;40.17;21.43;;;2.00;65.80;;;;;;6185561;23;20004;-82
2021/01/06 04:17:25;;;;;;;40.40;22.03;;;2.00;65.60;;;;;;6192706;23;20072;-82
2021/01/06 04:19:59;;;;;;;36.63;20.60;;;2.10;65.60;;;;;;6191673;23;20019;-82
2021/01/06 04:22:39;;;;;;;42.93;22.70;;;2.00;65.30;;;;;;6219058;23;20001;-82
2021/01/06 04:25:13;;;;;;;40.03;19.90;;;2.00;65.40;;;;;;6191322;23;20012;-82
2021/01/06 04:27:40;;;;;;;35.97;19.83;;;2.00;65.40;;;;;;6192502;23;20036;-82
2021/01/06 04:30:11;;;;;;;40.13;21.17;;;2.00;65.30;;;;;;6190542;23;20023;-82
2021/01/06 04:32:37;;;;;;;37.70;20.40;;;1.90;65.20;;;;;;6192217;23;20009;-82
2021/01/06 04:35:07;;;;;;;38.33;20.63;;;1.90;65.20;;;;;;6193006;23;20004;-82
2021/01/06 04:37:33;;;;;;;43.40;21.80;;;1.80;65.20;;;;;;6191429;23;20000;-82
2021/01/06 04:39:58;;;;;;;42.83;21.47;;;1.70;65.30;;;;;;6191327;23;20499;-82
2021/01/06 04:42:26;;;;;;;40.20;21.67;;;1.70;65.50;;;;;;6176579;23;20083;-82
2021/01/06 04:45:20;;;;;;;41.10;21.83;;;1.70;65.50;;;;;;6160460;23;20009;-82
2021/01/06 04:47:58;;;;;;;38.20;20.57;;;1.70;65.40;;;;;;6155268;23;20013;-82
2021/01/06 04:50:51;;;;;;;39.30;20.30;;;1.70;65.30;;;;;;6161772;23;20398;-82
2021/01/06 04:54:14;;;;;;;42.07;21.63;;;1.70;65.40;;;;;;6161907;23;20013;-82
2021/01/06 04:57:00;;;;;;;37.23;20.37;;;1.60;65.30;;;;;;6014220;23;20275;-82
2021/01/06 04:59:28;;;;;;;43.53;21.63;;;1.60;65.60;;;;;;6040838;23;20259;-82
2021/01/06 05:02:20;;;;;;;38.50;21.13;;;1.70;65.70;;;;;;6112458;23;20232;-82
2021/01/06 05:05:07;;;;;;;43.53;23.40;;;1.70;65.50;;;;;;6157411;23;20232;-82
2021/01/06 05:07:56;;;;;;;51.10;25.57;;;1.80;65.70;;;;;;6162627;23;20043;-82
2021/01/06 05:10:25;;;;;;;47.53;23.80;;;1.70;65.20;;;;;;6160918;23;20713;-82
2021/01/06 05:12:52;;;;;;;50.23;26.37;;;1.70;65.40;;;;;;6188993;23;20012;-82
2021/01/06 05:15:44;;;;;;;54.00;27.10;;;1.80;65.70;;;;;;6163655;23;20013;-82
2021/01/06 05:18:10;;;;;;;50.63;26.23;;;1.80;65.60;;;;;;6161827;23;20008;-82
2021/01/06 05:20:36;;;;;;;49.87;26.80;;;1.80;65.60;;;;;;6188438;23;20005;-82
2021/01/06 05:23:02;;;;;;;53.00;25.77;;;1.80;66.20;;;;;;6162095;23;20009;-82
2021/01/06 05:25:34;;;;;;;45.50;25.10;;;1.80;65.70;;;;;;6161680;23;20011;-82
2021/01/06 05:28:01;;;;;;;41.93;22.13;;;1.80;65.70;;;;;;6189504;23;20081;-82
2021/01/06 05:30:32;;;;;;;39.17;21.03;;;1.80;65.70;;;;;;6161572;23;20005;-82
2021/01/06 05:33:07;;;;;;;41.60;21.83;;;1.80;65.60;;;;;;6161301;23;20009;-82
2021/01/06 05:35:42;;;;;;;42.40;22.37;;;1.80;65.60;;;;;;6187629;23;20028;-82
2021/01/06 05:38:09;;;;;;;40.17;21.03;;;1.80;65.40;;;;;;6161857;23;20001;-82
2021/01/06 05:40:37;;;;;;;39.43;20.30;;;1.70;65.20;;;;;;6161159;23;20315;-82
2021/01/06 05:43:19;;;;;;;39.30;21.80;;;1.70;65.20;;;;;;6162853;23;20013;-82
2021/01/06 05:45:47;;;;;;;38.33;21.10;;;1.70;65.30;;;;;;6188327;23;20005;-82
2021/01/06 05:48:37;;;;;;;38.57;20.80;;;1.80;65.30;;;;;;6187187;23;20036;-82
2021/01/06 05:51:30;;;;;;;37.23;20.87;;;1.80;65.20;;;;;;6135778;23;20012;-82
2021/01/06 05:53:59;;;;;;;43.88;22.52;;;1.70;65.10;;;;;;6161314;23;20100;-82
2021/01/06 05:57:03;;;;;;;41.90;21.80;;;1.80;65.20;;;;;;6186713;23;20001;-82
2021/01/06 05:59:55;;;;;;;40.10;21.37;;;1.80;65.20;;;;;;6160704;23;20256;-82
2021/01/06 06:02:49;;;;;;;42.43;22.93;;;1.70;65.00;;;;;;6086968;23;20009;-82
2021/01/06 06:05:36;;;;;;;39.73;21.87;;;1.70;64.90;;;;;;6161079;23;20033;-82
2021/01/06 06:08:07;;;;;;;38.23;20.67;;;1.70;65.50;;;;;;6160622;23;20005;-82
2021/01/06 06:10:57;;;;;;;39.53;21.27;;;1.70;64.90;;;;;;6160187;23;20268;-82
2021/01/06 06:14:01;;;;;;;38.07;21.23;;;1.60;65.20;;;;;;6160334;23;20039;-82
2021/01/06 06:16:33;;;;;;;37.75;21.20;;;1.60;65.10;;;;;;6159901;23;20284;-82
2021/01/06 06:19:30;;;;;;;36.17;20.08;;;1.60;65.30;;;;;;6187312;23;20001;-82
2021/01/06 06:22:27;;;;;;;39.97;22.73;;;1.60;65.30;;;;;;6160526;23;20001;-82
2021/01/06 06:25:17;;;;;;;36.70;19.90;;;1.60;65.40;;;;;;6186271;23;20224;-82
2021/01/06 06:27:47;;;;;;;36.10;19.30;;;1.50;65.20;;;;;;6186777;23;20008;-82
2021/01/06 06:30:26;;;;;;;36.23;19.40;;;1.50;65.30;;;;;;6186508;23;20228;-82
2021/01/06 06:32:52;;;;;;;34.73;18.37;;;1.50;65.40;;;;;;6160432;23;20229;-82
2021/01/06 06:35:23;;;;;;;32.83;18.60;;;1.50;65.20;;;;;;6159601;23;20244;-82
2021/01/06 06:37:55;;;;;;;37.87;20.97;;;1.50;65.10;;;;;;6185874;23;20236;-82
2021/01/06 06:40:22;;;;;;;35.43;20.70;;;1.50;65.00;;;;;;6185426;23;20032;-82
2021/01/06 06:42:50;;;;;;;78.23;37.70;;;1.50;64.90;;;;;;6160543;23;20387;-82
2021/01/06 06:45:35;;;;;;;52.83;26.10;;;1.40;64.80;;;;;;6161025;23;20252;-82
2021/01/06 06:48:37;;;;;;;51.93;26.50;;;1.50;64.90;;;;;;6159858;23;20249;-82
2021/01/06 06:51:25;;;;;;;45.60;24.70;;;1.40;64.70;;;;;;6158720;23;20239;-82
2021/01/06 06:54:05;;;;;;;59.33;30.47;;;1.40;64.70;;;;;;6160438;23;20009;-82
2021/01/06 06:56:45;;;;;;;52.60;29.93;;;1.40;64.80;;;;;;6183297;23;20316;-82
2021/01/06 06:59:21;;;;;;;53.27;26.97;;;1.40;64.90;;;;;;6158538;23;20252;-82
2021/01/06 07:01:48;;;;;;;52.87;28.27;;;1.40;64.90;;;;;;6161130;23;20025;-82
2021/01/06 07:04:20;;;;;;;49.17;26.80;;;1.40;65.10;;;;;;6161943;23;21123;-82
2021/01/06 07:06:58;;;;;;;50.57;26.70;;;1.40;65.10;;;;;;6162094;23;20005;-82
2021/01/06 07:09:36;;;;;;;57.03;29.10;;;1.30;65.00;;;;;;6161066;23;20232;-82
2021/01/06 07:12:08;;;;;;;58.47;31.23;;;1.30;65.10;;;;;;6161599;23;20236;-82
2021/01/06 07:14:52;;;;;;;52.30;29.17;;;1.30;65.10;;;;;;6162169;23;20452;-82
2021/01/06 07:17:50;;;;;;;60.83;32.27;;;1.40;65.20;;;;;;6161296;23;20005;-82
2021/01/06 07:20:36;;;;;;;57.33;30.17;;;1.40;65.00;;;;;;6081669;23;20280;-82
2021/01/06 07:23:32;;;;;;;49.77;28.57;;;1.30;64.90;;;;;;6161381;23;20294;-82
2021/01/06 07:26:12;;;;;;;50.50;26.13;;;1.30;65.20;;;;;;6159262;23;20260;-82
2021/01/06 07:28:38;;;;;;;50.37;25.77;;;1.30;65.30;;;;;;6159114;23;20635;-82
2021/01/06 07:31:20;;;;;;;47.07;25.83;;;1.30;65.10;;;;;;6187078;23;20445;-82
2021/01/06 07:34:00;;;;;;;51.83;27.13;;;1.40;65.10;;;;;;6161357;23;20233;-82
2021/01/06 07:36:31;;;;;;;42.07;25.07;;;1.40;64.80;;;;;;6185844;23;20232;-82
2021/01/06 07:38:57;;;;;;;52.13;25.20;;;1.40;64.80;;;;;;6160795;23;21070;-82
2021/01/06 07:41:25;;;;;;;52.57;26.23;;;1.40;64.70;;;;;;6162506;23;20235;-82
2021/01/06 07:44:24;;;;;;;54.50;27.93;;;1.40;64.60;;;;;;6217406;23;20385;-82
2021/01/06 07:47:15;;;;;;;52.20;28.50;;;1.40;65.10;;;;;;6187937;23;20309;-81
2021/01/06 07:49:59;;;;;;;59.43;28.27;;;1.40;65.20;;;;;;6189195;23;20231;-82
2021/01/06 07:52:46;;;;;;;57.27;28.70;;;1.40;65.30;;;;;;6188304;23;20483;-82
2021/01/06 07:55:33;;;;;;;57.53;29.60;;;1.40;65.20;;;;;;6189129;23;20250;-82
2021/01/06 07:58:05;;;;;;;55.17;27.77;;;1.40;65.30;;;;;;6189444;23;20594;-82
2021/01/06 08:00:39;;;;;;;54.58;28.60;;;1.50;65.30;;;;;;6188844;23;20275;-82
2021/01/06 08:03:42;;;;;;;68.43;32.87;;;1.50;65.30;;;;;;6188359;23;20015;-82
2021/01/06 08:06:08;;;;;;;61.23;30.77;;;1.50;65.50;;;;;;6187599;23;20570;-82
2021/01/06 08:08:49;;;;;;;54.37;29.03;;;1.50;65.30;;;;;;6187117;23;20667;-82
2021/01/06 08:11:18;;;;;;;59.00;28.60;;;1.50;65.50;;;;;;6188122;23;20251;-82
2021/01/06 08:13:47;;;;;;;58.57;29.73;;;1.50;65.40;;;;;;6188789;23;20262;-82
2021/01/06 08:16:33;;;;;;;57.63;28.97;;;1.60;65.30;;;;;;6189443;23;20012;-82
2021/01/06 08:19:29;;;;;;;56.00;29.80;;;1.70;65.40;;;;;;6190190;23;20028;-82
2021/01/06 08:22:09;;;;;;;63.10;29.07;;;1.70;65.10;;;;;;6189839;23;20646;-82
2021/01/06 08:24:42;;;;;;;51.60;27.73;;;1.70;65.10;;;;;;6189831;23;20009;-82
2021/01/06 08:27:14;;;;;;;52.23;29.20;;;1.70;65.20;;;;;;6217510;23;20028;-82
2021/01/06 08:29:40;;;;;;;55.40;28.60;;;1.70;65.30;;;;;;6190743;23;20078;-82
2021/01/06 08:32:22;;;;;;;50.80;28.80;;;1.80;65.30;;;;;;6190775;23;20005;-82
2021/01/06 08:35:04;;;;;;;55.73;28.63;;;1.80;65.20;;;;;;6216624;23;20000;-82
2021/01/06 08:37:34;;;;;;;54.08;28.58;;;1.90;65.00;;;;;;6216306;23;20001;-82
2021/01/06 08:40:04;;;;;;;51.10;28.73;;;1.80;65.00;;;;;;6189262;23;20009;-82
2021/01/06 08:42:50;;;;;;;61.47;32.13;;;1.80;65.20;;;;;;6218112;23;20020;-82
2021/01/06 08:45:24;;;;;;;63.17;33.33;;;1.80;65.10;;;;;;6190405;23;20004;-82
2021/01/06 08:47:50;;;;;;;53.70;29.43;;;1.80;65.20;;;;;;6191267;23;20027;-82
2021/01/06 08:50:15;;;;;;;67.50;34.10;;;1.80;65.10;;;;;;6217675;23;20001;-82
2021/01/06 08:53:11;;;;;;;57.17;29.77;;;1.90;65.20;;;;;;6191947;23;20012;-82
2021/01/06 08:55:54;;;;;;;52.87;29.67;;;2.00;65.10;;;;;;6160467;23;20004;-82
2021/01/06 08:58:21;;;;;;;54.30;29.33;;;2.10;65.20;;;;;;6190816;23;20020;-82
2021/01/06 09:00:49;;;;;;;53.93;30.17;;;2.10;65.50;;;;;;6191194;23;20032;-82
2021/01/06 09:03:57;;;;;;;53.07;29.40;;;2.20;64.80;;;;;;6191213;23;20015;-82
2021/01/06 09:06:25;;;;;;;54.90;30.33;;;2.20;64.70;;;;;;6165908;23;20027;-82
2021/01/06 09:09:34;;;;;;;54.37;29.87;;;2.20;64.70;;;;;;6191880;23;19997;-82
2021/01/06 09:12:00;;;;;;;57.80;29.93;;;2.10;64.50;;;;;;6190831;23;20088;-82
2021/01/06 09:14:33;;;;;;;65.47;34.17;;;2.10;65.00;;;;;;6191214;23;20043;-82
2021/01/06 09:17:15;;;;;;;;;;;2.20;65.00;;;;;;6192324;23;20001;-82
2021/01/06 09:19:50;;;;;;;59.23;30.27;;;2.30;65.10;;;;;;6192644;23;20003;-83
2021/01/06 09:22:17;;;;;;;56.33;31.20;;;2.40;64.70;;;;;;6191393;23;20618;-83
2021/01/06 09:24:45;;;;;;;58.23;29.13;;;2.40;64.50;;;;;;6191396;23;20051;-83
2021/01/06 09:27:35;;;;;;;57.53;31.03;;;2.30;64.90;;;;;;6190361;23;20378;-83
2021/01/06 09:30:24;;;;;;;51.97;28.67;;;2.40;65.00;;;;;;6218634;23;20011;-82
2021/01/06 09:32:53;;;;;;;52.33;28.53;;;2.40;64.80;;;;;;6217648;23;20001;-82
2021/01/06 09:35:24;;;;;;;54.37;29.23;;;2.40;65.00;;;;;;6190626;23;20016;-82
2021/01/06 09:37:57;;;;;;;56.70;30.17;;;2.50;64.80;;;;;;6191639;23;20012;-82
2021/01/06 09:40:25;;;;;;;53.87;29.73;;;2.50;64.70;;;;;;6218393;23;20066;-82
2021/01/06 09:43:06;;;;;;;56.10;30.77;;;2.50;64.70;;;;;;6170517;23;20021;-82
2021/01/06 09:45:33;;;;;;;54.23;31.07;;;2.50;64.70;;;;;;6162146;23;20005;-82
2021/01/06 09:48:02;;;;;;;65.50;32.37;;;2.60;64.40;;;;;;6188262;23;20001;-82
2021/01/06 09:50:40;;;;;;;48.33;26.47;;;2.60;64.50;;;;;;6162107;23;20005;-82
2021/01/06 09:53:10;;;;;;;53.67;30.00;;;2.70;64.50;;;;;;6188051;23;20001;-82
2021/01/06 09:55:42;;;;;;;53.47;29.33;;;2.80;64.30;;;;;;6187121;23;20376;-82
2021/01/06 09:58:19;;;;;;;54.63;28.43;;;2.90;64.20;;;;;;6158690;23;20424;-81
2021/01/06 10:01:07;;;;;;;56.90;29.63;;;3.10;63.90;;;;;;6159961;23;20013;-82
2021/01/06 10:03:37;;;;;;;50.83;28.70;;;3.10;63.60;;;;;;6157716;23;20001;-82
2021/01/06 10:06:33;;;;;;;51.13;29.90;;;3.20;63.60;;;;;;6161395;23;20004;-82
2021/01/06 10:09:02;;;;;;;55.27;29.77;;;3.30;63.30;;;;;;6161918;23;20005;-82
2021/01/06 10:11:39;;;;;;;57.50;30.50;;;3.30;63.00;;;;;;6160661;23;20005;-82
2021/01/06 10:14:14;;;;;;;56.93;31.53;;;3.40;62.90;;;;;;6162205;23;20009;-82
2021/01/06 10:16:46;;;;;;;51.73;28.57;;;3.50;62.70;;;;;;6162318;23;20012;-83
2021/01/06 10:19:35;;;;;;;63.03;34.20;;;3.60;62.70;;;;;;6162733;23;20012;-82
2021/01/06 10:22:25;;;;;;;53.27;28.57;;;3.80;62.60;;;;;;6161521;23;20001;-82
2021/01/06 10:25:07;;;;;;;46.10;26.93;;;4.10;62.00;;;;;;6163872;23;20004;-83
2021/01/06 10:27:51;;;;;;;40.97;24.65;;;4.20;61.40;;;;;;6163548;23;20005;-82
2021/01/06 10:30:19;;;;;;;47.70;25.23;;;4.40;61.10;;;;;;6187972;23;20035;-82
2021/01/06 10:33:10;;;;;;;43.50;25.73;;;4.50;60.90;;;;;;6189410;23;20016;-82
2021/01/06 10:35:54;;;;;;;43.00;24.83;;;4.60;60.30;;;;;;6162496;23;20019;-82
2021/01/06 10:38:39;;;;;;;41.33;25.47;;;4.80;60.00;;;;;;6188280;23;20104;-83
2021/01/06 10:41:34;;;;;;;42.90;24.53;;;4.90;59.80;;;;;;6163251;23;20055;-83
2021/01/06 10:44:19;;;;;;;40.73;23.47;;;5.10;59.20;;;;;;6189673;23;20326;-83
2021/01/06 10:46:51;;;;;;;40.57;25.47;;;5.20;58.50;;;;;;6162767;23;20443;-83
2021/01/06 10:49:19;;;;;;;43.40;26.13;;;5.40;58.50;;;;;;6188836;23;20313;-83
2021/01/06 10:51:57;;;;;;;39.17;25.13;;;5.50;58.30;;;;;;6163870;23;20455;-83
2021/01/06 10:54:38;;;;;;;43.93;25.73;;;5.80;58.20;;;;;;6189481;23;20005;-83
2021/01/06 10:57:32;;;;;;;40.23;23.33;;;6.10;57.50;;;;;;6161657;23;20313;-83
2021/01/06 11:00:18;;;;;;;34.27;22.17;;;6.30;57.40;;;;;;6162383;23;20005;-83
2021/01/06 11:03:17;;;;;;;39.40;24.37;;;6.30;56.70;;;;;;6189055;23;20068;-83
2021/01/06 11:05:52;;;;;;;40.37;25.90;;;6.30;56.40;;;;;;6162265;23;20003;-83
2021/01/06 11:08:33;;;;;;;43.67;25.37;;;6.10;56.30;;;;;;6162062;23;19997;-83
2021/01/06 11:11:15;;;;;;;45.40;27.57;;;5.90;56.30;;;;;;6161369;23;20005;-83
2021/01/06 11:14:10;;;;;;;44.87;27.27;;;5.70;56.50;;;;;;6188169;23;20088;-83
2021/01/06 11:16:56;;;;;;;40.53;24.50;;;5.60;56.50;;;;;;6161054;23;20484;-83
2021/01/06 11:19:48;;;;;;;45.33;25.17;;;5.40;56.40;;;;;;6161914;23;20005;-83
2021/01/06 11:22:27;;;;;;;43.70;25.02;;;5.30;56.60;;;;;;6188636;23;19997;-83
2021/01/06 11:25:02;;;;;;;36.87;23.70;;;5.30;56.70;;;;;;6160929;23;20001;-83
2021/01/06 11:27:43;;;;;;;38.97;24.93;;;5.10;56.50;;;;;;6159326;23;20012;-83
2021/01/06 11:30:24;;;;;;;39.83;24.30;;;5.00;56.60;;;;;;6157200;23;20078;-83
2021/01/06 11:33:17;;;;;;;38.43;23.97;;;5.00;56.80;;;;;;6159609;23;20044;-83
2021/01/06 11:35:46;;;;;;;;;;;5.00;56.60;;;;;;6162350;23;20000;-83
2021/01/06 11:38:33;;;;;;;40.67;23.83;;;4.90;56.80;;;;;;6164960;23;19900;-84
2021/01/06 11:40:59;;;;;;;40.27;24.07;;;4.90;57.00;;;;;;6161099;23;20013;-83
2021/01/06 11:43:27;;;;;;;39.60;23.90;;;4.80;56.80;;;;;;6161015;23;20028;-83
2021/01/06 11:45:53;;;;;;;42.70;25.07;;;4.80;56.80;;;;;;6160989;23;20048;-83
2021/01/06 11:48:33;;;;;;;42.43;25.13;;;4.90;56.80;;;;;;6160969;23;20008;-83
2021/01/06 11:51:24;;;;;;;40.57;24.57;;;4.90;56.60;;;;;;6187219;23;20801;-83
2021/01/06 11:54:22;;;;;;;41.43;25.93;;;4.90;56.70;;;;;;6161645;23;20116;-83
2021/01/06 11:57:01;;;;;;;45.33;24.67;;;4.80;56.70;;;;;;6186784;23;20028;-83
2021/01/06 11:59:40;;;;;;;40.50;24.40;;;4.90;57.10;;;;;;6161227;23;20009;-83
2021/01/06 12:02:17;;;;;;;36.47;21.17;;;4.90;57.10;;;;;;6163874;23;20008;-84
2021/01/06 12:05:19;;;;;;;38.80;22.97;;;4.90;56.90;;;;;;6163613;23;20032;-83
2021/01/06 12:08:17;;;;;;;39.60;23.73;;;4.90;56.60;;;;;;6185896;23;20008;-84
2021/01/06 12:11:06;;;;;;;41.10;24.63;;;4.90;56.50;;;;;;6149030;23;20384;-83
2021/01/06 12:13:49;;;;;;;39.57;23.30;;;4.90;56.80;;;;;;6119361;23;20012;-83
2021/01/06 12:16:22;;;;;;;40.13;23.90;;;5.00;56.90;;;;;;6189703;23;20717;-84
2021/01/06 12:19:20;;;;;;;37.25;22.73;;;5.00;56.50;;;;;;6190167;23;20009;-83
2021/01/06 12:21:49;;;;;;;38.37;23.73;;;4.90;56.40;;;;;;6165145;23;20072;-83
2021/01/06 12:24:30;;;;;;;42.03;23.60;;;4.70;56.40;;;;;;6164228;23;20013;-83
2021/01/06 12:27:10;;;;;;;38.07;23.60;;;4.80;57.20;;;;;;6163247;23;20083;-83
2021/01/06 12:29:48;;;;;;;35.97;22.63;;;4.80;56.60;;;;;;6188111;23;20009;-83
2021/01/06 12:32:33;;;;;;;39.57;22.63;;;4.80;56.90;;;;;;6157638;23;20730;-83
2021/01/06 12:35:16;;;;;;;36.13;22.33;;;4.80;56.50;;;;;;6186639;23;20009;-83
2021/01/06 12:37:43;;;;;;;40.30;22.93;;;4.90;56.40;;;;;;6164027;23;20005;-83
2021/01/06 12:40:12;;;;;;;41.23;23.47;;;4.90;56.40;;;;;;6164608;23;20009;-84
2021/01/06 12:42:50;;;;;;;37.10;22.23;;;5.00;56.30;;;;;;6205973;23;20026;-83
2021/01/06 12:45:37;;;;;;;40.43;24.67;;;5.00;56.30;;;;;;6193798;23;20004;-83
2021/01/06 12:48:11;;;;;;;44.10;24.93;;;5.00;56.00;;;;;;6220657;23;20001;-83
2021/01/06 12:50:51;;;;;;;42.40;23.77;;;4.90;56.10;;;;;;6193619;23;20009;-83
2021/01/06 12:53:39;;;;;;;41.80;24.03;;;5.00;55.90;;;;;;6193482;23;20608;-83
2021/01/06 12:56:04;;;;;;;38.60;23.43;;;5.00;55.90;;;;;;6193634;23;20329;-84
2021/01/06 12:58:47;;;;;;;38.57;21.90;;;5.00;56.00;;;;;;6195137;23;20005;-83
2021/01/06 13:01:44;;;;;;;35.72;22.20;;;5.10;55.90;;;;;;6221059;23;20012;-83
2021/01/06 13:04:13;;;;;;;36.40;23.03;;;5.10;55.70;;;;;;6191550;23;20012;-83
2021/01/06 13:06:42;;;;;;;37.77;22.93;;;5.10;55.60;;;;;;6194754;23;20083;-83
2021/01/06 13:09:13;;;;;;;36.37;22.83;;;5.20;55.80;;;;;;6193723;23;20050;-83
2021/01/06 13:11:41;;;;;;;46.57;25.67;;;5.20;55.80;;;;;;6218255;23;20001;-83
2021/01/06 13:14:39;;;;;;;46.63;27.10;;;5.30;56.00;;;;;;6193011;23;20000;-83
2021/01/06 13:17:14;;;;;;;43.87;25.77;;;5.40;55.80;;;;;;6162291;23;20428;-83
2021/01/06 13:19:58;;;;;;;36.50;23.03;;;5.50;55.70;;;;;;6192580;23;20392;-83
2021/01/06 13:22:30;;;;;;;38.57;23.37;;;5.50;55.50;;;;;;6192561;23;20001;-83
2021/01/06 13:25:07;;;;;;;40.97;24.50;;;5.70;55.70;;;;;;6193507;23;20439;-83